createdAt,value
2023-05-22T00:01:26.688Z,55.00
2023-05-22T00:05:30.551Z,54.70
2023-05-22T00:09:33.408Z,54.70
2023-05-22T00:13:36.230Z,54.60
2023-05-22T00:17:39.272Z,54.70
2023-05-22T00:21:43.007Z,54.80
2023-05-22T00:25:45.834Z,54.80
2023-05-22T00:29:48.650Z,54.70
2023-05-22T00:33:51.495Z,54.60
2023-05-22T00:37:54.545Z,54.50
2023-05-22T00:41:58.007Z,54.40
2023-05-22T00:46:01.090Z,54.20
2023-05-22T00:50:06.103Z,54.00
2023-05-22T00:54:10.565Z,53.80
2023-05-22T00:58:18.573Z,53.80
2023-05-22T01:02:21.922Z,53.80
2023-05-22T01:06:24.853Z,53.80
2023-05-22T01:10:28.520Z,53.80
2023-05-22T01:14:37.071Z,53.90
2023-05-22T01:18:52.711Z,53.90
2023-05-22T01:23:20.760Z,54.00
2023-05-22T01:27:55.989Z,53.80
2023-05-22T01:32:00.639Z,53.80
2023-05-22T01:36:06.265Z,53.90
2023-05-22T01:40:12.197Z,53.80
2023-05-22T01:44:15.171Z,53.90
2023-05-22T01:48:18.264Z,54.00
2023-05-22T01:52:49.462Z,54.10
2023-05-22T01:56:57.508Z,54.50
2023-05-22T02:01:03.549Z,55.10
2023-05-22T02:05:09.778Z,55.70
2023-05-22T02:09:15.086Z,56.20
2023-05-22T02:13:18.284Z,56.70
2023-05-22T02:17:22.066Z,57.00
2023-05-22T02:21:25.116Z,57.40
2023-05-22T02:25:28.340Z,57.90
2023-05-22T02:29:31.249Z,58.20
2023-05-22T02:33:34.521Z,58.50
2023-05-22T02:37:37.880Z,58.90
2023-05-22T02:41:40.664Z,59.30
2023-05-22T02:45:43.850Z,59.70
2023-05-22T02:49:47.115Z,60.00
2023-05-22T02:53:50.973Z,60.20
2023-05-22T02:57:53.832Z,60.30
2023-05-22T03:01:56.907Z,60.50
2023-05-22T03:06:01.913Z,60.50
2023-05-22T03:10:05.628Z,60.70
2023-05-22T03:14:08.540Z,60.80
2023-05-22T03:18:11.767Z,61.00
2023-05-22T03:22:15.750Z,61.10
2023-05-22T03:26:18.494Z,61.10
2023-05-22T03:30:21.504Z,61.50
2023-05-22T03:34:36.919Z,61.50
2023-05-22T03:38:42.956Z,60.70
2023-05-22T03:42:45.966Z,59.90
2023-05-22T03:46:49.074Z,59.30
2023-05-22T03:50:52.047Z,58.80
2023-05-22T03:54:54.917Z,58.40
2023-05-22T03:58:57.823Z,57.90
2023-05-22T04:03:01.121Z,57.60
2023-05-22T04:07:08.385Z,57.20
2023-05-22T04:11:11.146Z,57.40
2023-05-22T04:15:14.163Z,57.70
2023-05-22T04:19:18.348Z,58.10
2023-05-22T04:23:21.621Z,58.40
2023-05-22T04:27:25.061Z,58.80
2023-05-22T04:31:28.608Z,59.00
2023-05-22T04:35:31.928Z,59.30
2023-05-22T04:39:34.716Z,59.40
2023-05-22T04:43:38.780Z,59.40
2023-05-22T04:47:42.563Z,59.60
2023-05-22T04:51:45.555Z,59.70
2023-05-22T04:55:55.921Z,59.80
2023-05-22T04:59:59.929Z,59.80
2023-05-22T05:04:03.783Z,59.30
2023-05-22T05:08:07.100Z,58.70
2023-05-22T05:12:10.055Z,58.20
2023-05-22T05:16:16.061Z,57.70
2023-05-22T05:20:19.272Z,57.30
2023-05-22T05:24:25.054Z,57.10
2023-05-22T05:28:28.004Z,56.80
2023-05-22T05:32:31.742Z,56.30
2023-05-22T05:36:57.761Z,56.00
2023-05-22T05:41:02.011Z,55.70
2023-05-22T05:45:06.012Z,55.30
2023-05-22T05:49:11.274Z,55.00
2023-05-22T05:53:16.425Z,54.60
2023-05-22T05:57:24.842Z,54.40
2023-05-22T06:01:29.441Z,54.10
2023-05-22T06:05:32.347Z,53.80
2023-05-22T06:09:50.299Z,53.40
2023-05-22T06:14:05.622Z,53.00
2023-05-22T06:18:08.914Z,52.70
2023-05-22T06:22:13.332Z,52.60
2023-05-22T06:26:19.022Z,52.20
2023-05-22T06:30:38.816Z,52.10
2023-05-22T06:34:47.221Z,52.00
2023-05-22T06:38:55.005Z,51.30
2023-05-22T06:43:16.522Z,51.40
2023-05-22T06:47:44.714Z,51.50
2023-05-22T06:51:47.835Z,51.50
2023-05-22T06:55:53.078Z,51.30
2023-05-22T07:00:09.845Z,51.10
2023-05-22T07:04:31.466Z,51.20
2023-05-22T07:08:42.348Z,51.20
2023-05-22T07:12:45.621Z,51.40
2023-05-22T07:16:48.894Z,51.40
2023-05-22T07:20:58.751Z,51.30
2023-05-22T07:25:01.809Z,51.30
2023-05-22T07:29:08.489Z,51.30
2023-05-22T07:33:12.712Z,51.50
2023-05-22T07:37:16.215Z,51.60
2023-05-22T07:41:24.201Z,51.30
2023-05-22T07:45:27.253Z,51.00
2023-05-22T07:49:31.872Z,50.50
2023-05-22T07:53:36.565Z,50.10
2023-05-22T07:57:40.947Z,50.20
2023-05-22T08:02:08.517Z,50.30
2023-05-22T08:06:11.564Z,49.50
2023-05-22T08:10:17.159Z,48.90
2023-05-22T08:14:22.015Z,48.10
2023-05-22T08:18:28.068Z,47.50
2023-05-22T08:22:31.512Z,47.80
2023-05-22T08:26:34.556Z,47.50
2023-05-22T08:30:37.683Z,47.00
2023-05-22T08:34:42.162Z,47.00
2023-05-22T08:38:45.365Z,46.50
2023-05-22T08:42:51.529Z,46.40
2023-05-22T08:46:57.013Z,46.50
2023-05-22T08:51:06.069Z,46.30
2023-05-22T08:55:09.833Z,45.80
2023-05-22T08:59:13.029Z,46.10
2023-05-22T09:03:16.336Z,45.80
2023-05-22T09:07:22.287Z,45.80
2023-05-22T09:11:26.367Z,46.40
2023-05-22T09:15:31.789Z,46.20
2023-05-22T09:19:34.802Z,45.60
2023-05-22T09:23:38.109Z,45.60
2023-05-22T09:27:46.440Z,44.90
2023-05-22T09:31:49.453Z,45.20
2023-05-22T09:35:54.277Z,45.10
2023-05-22T09:39:57.959Z,44.80
2023-05-22T09:44:02.146Z,44.70
2023-05-22T09:48:06.625Z,44.40
2023-05-22T09:52:12.677Z,44.80
2023-05-22T09:56:27.167Z,44.90
2023-05-22T10:00:39.069Z,44.40
2023-05-22T10:04:42.977Z,44.50
2023-05-22T10:08:59.057Z,43.70
2023-05-22T10:13:03.258Z,43.20
2023-05-22T10:17:07.071Z,44.30
2023-05-22T10:21:10.300Z,43.40
2023-05-22T10:25:13.341Z,43.20
2023-05-22T10:29:22.456Z,42.90
2023-05-22T10:33:36.866Z,43.40
2023-05-22T10:37:51.161Z,42.60
2023-05-22T10:41:54.256Z,42.00
2023-05-22T10:46:04.435Z,41.20
2023-05-22T10:50:09.720Z,40.10
2023-05-22T10:54:12.672Z,39.40
2023-05-22T10:58:25.558Z,40.00
2023-05-22T11:02:31.225Z,40.40
2023-05-22T11:06:52.910Z,40.80
2023-05-22T11:10:59.088Z,39.40
2023-05-22T11:15:08.867Z,39.40
2023-05-22T11:19:22.592Z,38.30
2023-05-22T11:23:26.618Z,38.70
2023-05-22T11:27:29.589Z,38.70
2023-05-22T11:31:32.724Z,39.00
2023-05-22T11:35:36.129Z,38.10
2023-05-22T11:39:38.950Z,38.40
2023-05-22T11:43:43.256Z,36.10
2023-05-22T11:47:46.569Z,36.30
2023-05-22T11:51:49.730Z,37.40
2023-05-22T11:55:52.759Z,36.90
2023-05-22T11:59:55.477Z,37.00
2023-05-22T12:03:58.374Z,38.80
2023-05-22T12:08:01.515Z,39.50
2023-05-22T12:12:04.740Z,40.40
2023-05-22T12:16:27.980Z,40.90
2023-05-22T12:20:31.415Z,41.70
2023-05-22T12:24:42.045Z,42.80
2023-05-22T12:28:45.222Z,41.80
2023-05-22T12:32:50.389Z,42.30
2023-05-22T12:36:53.397Z,42.90
2023-05-22T12:40:57.309Z,42.50
2023-05-22T12:45:00.830Z,42.90
2023-05-22T12:49:03.873Z,43.70
2023-05-22T12:53:06.894Z,45.10
2023-05-22T12:57:09.864Z,45.10
2023-05-22T13:01:12.710Z,45.10
2023-05-22T13:05:15.966Z,45.60
2023-05-22T13:09:20.089Z,45.20
2023-05-22T13:13:23.207Z,45.30
2023-05-22T13:17:26.985Z,44.50
2023-05-22T13:21:29.847Z,43.40
2023-05-22T13:25:32.920Z,43.10
2023-05-22T13:29:36.038Z,43.20
2023-05-22T13:33:39.108Z,43.50
2023-05-22T13:37:42.044Z,43.10
2023-05-22T13:41:45.319Z,43.50
2023-05-22T13:45:48.330Z,43.70
2023-05-22T13:49:51.145Z,44.50
2023-05-22T13:53:54.110Z,45.20
2023-05-22T13:57:57.292Z,45.90
2023-05-22T14:02:00.324Z,46.20
2023-05-22T14:06:03.255Z,46.50
2023-05-22T14:10:07.023Z,47.00
2023-05-22T14:14:10.028Z,47.30
2023-05-22T14:18:16.679Z,47.20
2023-05-22T14:22:19.596Z,47.20
2023-05-22T14:26:22.589Z,46.30
2023-05-22T14:30:25.659Z,45.80
2023-05-22T14:34:28.791Z,46.30
2023-05-22T14:38:35.576Z,45.20
2023-05-22T14:42:39.571Z,44.40
2023-05-22T14:46:42.540Z,44.70
2023-05-22T14:50:47.161Z,44.50
2023-05-22T14:54:50.082Z,45.00
2023-05-22T14:58:53.035Z,44.80
2023-05-22T15:02:55.979Z,45.60
2023-05-22T15:06:58.829Z,45.30
2023-05-22T15:11:01.579Z,45.50
2023-05-22T15:15:04.914Z,44.70
2023-05-22T15:19:09.476Z,43.60
2023-05-22T15:23:12.405Z,43.20
2023-05-22T15:27:15.430Z,42.70
2023-05-22T15:31:18.373Z,42.00
2023-05-22T15:35:21.281Z,42.60
2023-05-22T15:39:24.173Z,43.20
2023-05-22T15:43:27.602Z,43.30
2023-05-22T15:47:30.455Z,43.50
2023-05-22T15:51:33.462Z,43.80
2023-05-22T15:55:36.758Z,43.80
2023-05-22T15:59:39.634Z,44.70
2023-05-22T16:03:42.595Z,44.40
2023-05-22T16:07:46.298Z,44.20
2023-05-22T16:11:49.331Z,44.10
2023-05-22T16:15:52.134Z,44.30
2023-05-22T16:19:55.101Z,44.60
2023-05-22T16:23:57.971Z,43.70
2023-05-22T16:28:00.948Z,42.70
2023-05-22T16:32:04.471Z,42.30
2023-05-22T16:36:07.597Z,42.30
2023-05-22T16:40:11.121Z,42.10
2023-05-22T16:44:13.993Z,42.30
2023-05-22T16:48:17.676Z,42.50
2023-05-22T16:52:23.423Z,42.80
2023-05-22T16:56:26.501Z,43.40
2023-05-22T17:00:29.417Z,44.10
2023-05-22T17:04:32.166Z,46.80
2023-05-22T17:08:35.044Z,50.10
2023-05-22T17:12:38.102Z,51.80
2023-05-22T17:16:41.008Z,53.10
2023-05-22T17:20:44.097Z,54.00
2023-05-22T17:24:48.604Z,54.60
2023-05-22T17:28:51.540Z,55.10
2023-05-22T17:32:57.725Z,55.30
2023-05-22T17:37:00.725Z,55.70
2023-05-22T17:41:03.565Z,56.10
2023-05-22T17:45:07.219Z,56.50
2023-05-22T17:49:10.135Z,56.60
2023-05-22T17:53:13.617Z,57.20
2023-05-22T17:57:16.930Z,57.30
2023-05-22T18:01:19.878Z,57.20
2023-05-22T18:05:22.658Z,57.10
2023-05-22T18:09:26.182Z,57.00
2023-05-22T18:13:32.050Z,57.00
2023-05-22T18:17:35.536Z,57.10
2023-05-22T18:21:38.253Z,56.50
2023-05-22T18:25:42.487Z,57.20
2023-05-22T18:29:45.527Z,57.30
2023-05-22T18:33:48.478Z,57.20
2023-05-22T18:37:51.544Z,57.20
2023-05-22T18:41:54.293Z,57.80
2023-05-22T18:45:58.079Z,57.90
2023-05-22T18:50:00.925Z,57.90
2023-05-22T18:54:03.920Z,58.00
2023-05-22T18:58:07.920Z,58.30
2023-05-22T19:02:11.757Z,58.80
2023-05-22T19:06:14.571Z,59.20
2023-05-22T19:10:17.467Z,59.60
2023-05-22T19:14:20.575Z,59.80
2023-05-22T19:18:27.608Z,59.90
2023-05-22T19:22:30.864Z,60.20
2023-05-22T19:26:33.752Z,60.30
2023-05-22T19:30:36.735Z,60.40
2023-05-22T19:34:39.933Z,60.60
2023-05-22T19:38:42.741Z,60.90
2023-05-22T19:42:45.682Z,61.00
2023-05-22T19:46:48.658Z,61.20
2023-05-22T19:50:52.307Z,61.50
2023-05-22T19:54:55.632Z,61.50
2023-05-22T19:58:58.352Z,61.70
2023-05-22T20:03:02.064Z,61.80
2023-05-22T20:07:05.738Z,62.10
2023-05-22T20:11:08.984Z,62.30
2023-05-22T20:15:15.260Z,62.50
2023-05-22T20:19:18.448Z,62.70
2023-05-22T20:23:21.348Z,62.90
2023-05-22T20:27:24.171Z,63.30
2023-05-22T20:31:27.825Z,63.70
2023-05-22T20:35:31.067Z,64.10
2023-05-22T20:39:34.174Z,64.50
2023-05-22T20:43:37.028Z,64.80
2023-05-22T20:47:41.226Z,64.90
2023-05-22T20:51:44.491Z,65.00
2023-05-22T20:55:47.560Z,65.10
2023-05-22T20:59:50.554Z,65.10
2023-05-22T21:03:56.435Z,65.00
2023-05-22T21:07:59.458Z,65.20
2023-05-22T21:12:05.167Z,65.20
2023-05-22T21:16:10.177Z,65.50
2023-05-22T21:20:13.114Z,65.40
2023-05-22T21:24:16.357Z,65.60
2023-05-22T21:28:19.778Z,65.50
2023-05-22T21:32:22.702Z,65.60
2023-05-22T21:36:26.194Z,65.60
2023-05-22T21:40:29.013Z,65.90
2023-05-22T21:44:31.835Z,66.30
2023-05-22T21:48:34.715Z,66.40
2023-05-22T21:52:37.918Z,66.50
2023-05-22T21:56:41.418Z,66.60
2023-05-22T22:00:44.357Z,66.60
2023-05-22T22:04:47.325Z,66.90
2023-05-22T22:08:50.058Z,67.10
2023-05-22T22:12:52.893Z,67.30
2023-05-22T22:16:56.843Z,67.90
2023-05-22T22:21:02.483Z,68.00
2023-05-22T22:25:06.023Z,68.00
2023-05-22T22:29:08.842Z,68.00
2023-05-22T22:33:12.241Z,68.00
2023-05-22T22:37:15.128Z,68.00
2023-05-22T22:41:18.179Z,68.00
2023-05-22T22:45:21.177Z,68.30
2023-05-22T22:49:24.269Z,68.40
2023-05-22T22:53:27.136Z,68.40
2023-05-22T22:57:30.001Z,68.60
2023-05-22T23:01:32.959Z,68.90
2023-05-22T23:05:36.113Z,68.90
2023-05-22T23:09:40.530Z,69.10
2023-05-22T23:13:43.676Z,69.40
2023-05-22T23:17:47.057Z,69.60
2023-05-22T23:21:51.995Z,69.50
2023-05-22T23:25:57.318Z,69.60
2023-05-22T23:30:01.795Z,69.60
2023-05-22T23:34:06.033Z,68.90
2023-05-22T23:38:17.810Z,69.70
2023-05-22T23:42:20.699Z,70.00
2023-05-22T23:46:24.436Z,70.20
2023-05-22T23:50:28.270Z,70.20
2023-05-22T23:54:31.090Z,70.10
2023-05-22T23:58:34.082Z,70.10
